Time;durP1;ratioP1;P1;durP2;ratioP2;P2;SDS_P1;SDS_P2;PMS_P1;PMS_P2;Temp;Humidity;BMP_temperature;BMP_pressure;BME280_temperature;BME280_humidity;BME280_pressure;Samples;Min_cycle;Max_cycle;Signal;HPM_P1;HPM_P2
2022/07/10 00:00:14;;;;;;;4.43;1.40;;;16.50;99.90;;;;;;5040097;28;20205;-83
2022/07/10 00:02:44;;;;;;;4.20;1.60;;;16.40;99.90;;;;;;5041087;28;20272;-84
2022/07/10 00:05:12;;;;;;;3.60;1.40;;;16.40;99.90;;;;;;5039902;28;20225;-83
2022/07/10 00:07:49;;;;;;;4.93;1.60;;;16.30;99.90;;;;;;5038302;28;20213;-86
2022/07/10 00:10:17;;;;;;;5.37;2.23;;;16.30;99.90;;;;;;5042002;28;20682;-84
2022/07/10 00:12:45;;;;;;;5.20;1.73;;;16.20;99.90;;;;;;5042368;28;20215;-84
2022/07/10 00:15:15;;;;;;;7.97;1.93;;;16.10;99.90;;;;;;5040221;28;20201;-84
2022/07/10 00:17:43;;;;;;;7.37;1.77;;;16.10;99.90;;;;;;5040120;28;20669;-84
2022/07/10 00:20:12;;;;;;;5.87;1.30;;;16.10;99.90;;;;;;5038606;28;20248;-83
2022/07/10 00:22:42;;;;;;;5.90;1.63;;;16.00;99.90;;;;;;5047384;28;20205;-83
2022/07/10 00:25:12;;;;;;;5.73;1.60;;;16.00;99.90;;;;;;5060619;28;20224;-85
2022/07/10 00:27:41;;;;;;;7.47;1.57;;;16.00;99.90;;;;;;5060042;28;20212;-85
2022/07/10 00:30:11;;;;;;;6.20;1.80;;;16.00;99.90;;;;;;5044368;28;20193;-83
2022/07/10 00:32:38;;;;;;;3.97;1.60;;;15.90;99.90;;;;;;5046993;28;20213;-85
2022/07/10 00:35:06;;;;;;;4.63;1.50;;;15.90;99.90;;;;;;5038825;28;20579;-83
2022/07/10 00:37:36;;;;;;;5.27;1.87;;;15.80;99.90;;;;;;5043169;28;20201;-85
2022/07/10 00:40:04;;;;;;;6.13;2.23;;;15.80;99.90;;;;;;5042993;28;20623;-84
2022/07/10 00:42:33;;;;;;;7.93;2.00;;;15.80;99.90;;;;;;5040745;28;20228;-84
2022/07/10 00:45:04;;;;;;;3.83;1.60;;;15.70;99.90;;;;;;5039157;28;20856;-83
2022/07/10 00:47:31;;;;;;;3.60;1.60;;;15.70;99.90;;;;;;5039823;28;20211;-83
2022/07/10 00:49:59;;;;;;;5.40;1.50;;;15.60;99.90;;;;;;5036826;28;20237;-83
2022/07/10 00:52:27;;;;;;;5.67;2.20;;;15.70;99.90;;;;;;5037118;28;20198;-85
2022/07/10 00:54:54;;;;;;;7.20;2.10;;;15.60;99.90;;;;;;5041788;28;20292;-84
2022/07/10 00:57:23;;;;;;;5.77;1.90;;;15.50;99.90;;;;;;5044599;28;20201;-83
2022/07/10 00:59:51;;;;;;;5.20;1.67;;;15.50;99.90;;;;;;5042488;28;20219;-85
2022/07/10 01:02:18;;;;;;;5.40;1.93;;;15.40;99.90;;;;;;5041198;28;20217;-83
2022/07/10 01:04:45;;;;;;;8.33;1.93;;;15.40;99.90;;;;;;5040714;28;20236;-83
2022/07/10 01:07:15;;;;;;;8.23;1.60;;;15.40;99.90;;;;;;5037409;28;20697;-83
2022/07/10 01:09:43;;;;;;;9.40;2.20;;;15.30;99.90;;;;;;5041857;28;20635;-83
2022/07/10 01:12:11;;;;;;;5.30;1.40;;;15.30;99.90;;;;;;5038722;28;20318;-84
2022/07/10 01:14:39;;;;;;;6.10;2.00;;;15.20;99.90;;;;;;5037293;28;20213;-83
2022/07/10 01:17:08;;;;;;;8.03;2.20;;;15.20;99.90;;;;;;5035975;28;20209;-83
2022/07/10 01:19:38;;;;;;;8.70;2.27;;;15.10;99.90;;;;;;5038522;28;20248;-84
2022/07/10 01:22:05;;;;;;;6.20;1.63;;;15.10;99.90;;;;;;5041696;28;20327;-83
2022/07/10 01:24:32;;;;;;;4.53;1.83;;;15.10;99.90;;;;;;5036957;28;20219;-84
2022/07/10 01:26:59;;;;;;;9.07;2.00;;;15.10;99.90;;;;;;5043357;28;20199;-82
2022/07/10 01:29:26;;;;;;;7.03;2.07;;;15.10;99.90;;;;;;5041808;28;20679;-85
2022/07/10 01:31:53;;;;;;;5.13;1.97;;;15.10;99.90;;;;;;5041841;28;20205;-85
2022/07/10 01:34:23;;;;;;;6.87;1.90;;;15.10;99.90;;;;;;5038673;28;20214;-82
2022/07/10 01:36:50;;;;;;;7.77;1.80;;;15.10;99.90;;;;;;5038065;28;20206;-83
2022/07/10 01:39:17;;;;;;;10.00;1.80;;;15.20;99.90;;;;;;5043857;28;20208;-82
2022/07/10 01:41:44;;;;;;;9.23;2.07;;;15.20;99.90;;;;;;5041554;28;20208;-83
2022/07/10 01:44:11;;;;;;;7.37;1.87;;;15.10;99.90;;;;;;5036780;28;20213;-84
2022/07/10 01:46:48;;;;;;;5.47;1.83;;;15.10;99.90;;;;;;5038989;28;20242;-83
2022/07/10 01:49:15;;;;;;;7.47;2.37;;;15.10;99.90;;;;;;5039552;28;20690;-84
2022/07/10 01:51:43;;;;;;;6.67;1.87;;;15.10;99.90;;;;;;5032149;28;20697;-83
2022/07/10 01:54:10;;;;;;;6.43;1.83;;;15.10;99.90;;;;;;5037780;28;20201;-85
2022/07/10 01:56:42;;;;;;;7.77;1.80;;;15.10;99.90;;;;;;5038019;28;20562;-84
2022/07/10 01:59:12;;;;;;;7.20;2.37;;;15.00;99.90;;;;;;5040592;28;20212;-84
2022/07/10 02:01:39;;;;;;;8.23;1.87;;;15.10;99.90;;;;;;5034038;28;20568;-89
2022/07/10 02:06:51;;;;;;;6.80;1.83;;;15.10;99.90;;;;;;5040113;28;20229;-82
2022/07/10 02:09:19;;;;;;;5.30;2.33;;;15.10;99.90;;;;;;5042477;28;20788;-84
2022/07/10 02:11:46;;;;;;;5.13;1.80;;;15.20;99.90;;;;;;5032549;28;20214;-85
2022/07/10 02:14:20;;;;;;;5.63;2.73;;;15.20;99.90;;;;;;5045140;28;20254;-83
2022/07/10 02:16:47;;;;;;;5.27;1.63;;;15.20;99.90;;;;;;5040815;28;20215;-83
2022/07/10 02:19:17;;;;;;;9.50;2.67;;;15.20;99.90;;;;;;5035285;28;20224;-83
2022/07/10 02:21:45;;;;;;;5.47;1.73;;;15.30;99.90;;;;;;5034864;28;20995;-84
2022/07/10 02:24:12;;;;;;;5.23;1.83;;;15.30;99.90;;;;;;5044269;28;20649;-84
2022/07/10 02:26:39;;;;;;;6.77;1.70;;;15.30;99.90;;;;;;5040628;28;20282;-84
2022/07/10 02:29:06;;;;;;;4.57;2.10;;;15.30;99.90;;;;;;5036403;28;20788;-84
2022/07/10 02:31:41;;;;;;;6.20;1.80;;;15.20;99.90;;;;;;5038330;28;20209;-84
2022/07/10 02:34:09;;;;;;;4.37;2.43;;;15.30;99.90;;;;;;5041663;28;20768;-83
2022/07/10 02:36:38;;;;;;;5.77;1.77;;;15.20;99.90;;;;;;5041186;28;20571;-84
2022/07/10 02:39:06;;;;;;;6.50;1.90;;;15.00;99.90;;;;;;5041798;28;20206;-83
2022/07/10 02:41:35;;;;;;;8.90;2.13;;;15.10;99.90;;;;;;5037951;28;20770;-82
2022/07/10 02:44:03;;;;;;;10.30;1.83;;;15.00;99.90;;;;;;5040828;28;20681;-83
2022/07/10 02:46:30;;;;;;;5.33;1.50;;;14.90;99.90;;;;;;5035476;28;20726;-85
2022/07/10 02:48:57;;;;;;;9.77;2.20;;;14.90;99.90;;;;;;5038383;28;20229;-83
2022/07/10 02:51:25;;;;;;;7.00;1.77;;;14.90;99.90;;;;;;5035563;28;20208;-83
2022/07/10 02:53:51;;;;;;;6.43;2.13;;;14.90;99.90;;;;;;5041000;28;20209;-84
2022/07/10 02:56:19;;;;;;;8.67;1.77;;;15.00;99.90;;;;;;5039145;28;20214;-84
2022/07/10 02:58:45;;;;;;;6.33;1.50;;;15.00;99.90;;;;;;5041154;28;20205;-83
2022/07/10 03:01:12;;;;;;;5.67;1.77;;;15.10;99.90;;;;;;5035240;28;20197;-86
2022/07/10 03:03:40;;;;;;;7.57;2.00;;;15.20;99.90;;;;;;5037201;28;20233;-84
2022/07/10 03:06:07;;;;;;;3.53;1.60;;;15.20;99.90;;;;;;5031126;28;20238;-85
2022/07/10 03:08:35;;;;;;;5.20;1.80;;;15.30;99.90;;;;;;5035363;28;20208;-84
2022/07/10 03:11:02;;;;;;;5.33;1.60;;;15.30;99.90;;;;;;5044234;28;20209;-83
2022/07/10 03:13:29;;;;;;;6.43;1.80;;;15.40;99.90;;;;;;5040483;28;20213;-84
2022/07/10 03:15:56;;;;;;;6.83;2.17;;;15.40;99.90;;;;;;5044194;28;20241;-85
2022/07/10 03:18:24;;;;;;;5.73;1.60;;;15.40;99.90;;;;;;5041388;28;20213;-86
2022/07/10 03:20:51;;;;;;;3.97;1.70;;;15.60;99.90;;;;;;5043489;28;20271;-84
2022/07/10 03:23:19;;;;;;;3.17;1.60;;;15.50;99.90;;;;;;5042877;28;20204;-84
2022/07/10 03:25:46;;;;;;;6.07;2.57;;;15.50;99.90;;;;;;5039107;28;20233;-84
2022/07/10 03:28:13;;;;;;;6.27;1.83;;;15.50;99.90;;;;;;5039424;28;20201;-83
2022/07/10 03:30:40;;;;;;;5.93;1.83;;;15.50;99.90;;;;;;5044917;28;20209;-84
2022/07/10 03:33:07;;;;;;;4.37;1.83;;;15.50;99.90;;;;;;5042215;28;20223;-85
2022/07/10 03:35:34;;;;;;;6.73;1.80;;;15.50;99.90;;;;;;5042659;28;20205;-84
2022/07/10 03:38:02;;;;;;;4.47;1.70;;;15.50;99.90;;;;;;5061467;28;20697;-84
2022/07/10 03:40:29;;;;;;;7.27;2.17;;;15.50;99.90;;;;;;5046129;28;20210;-85
2022/07/10 03:42:56;;;;;;;9.07;2.40;;;15.50;99.90;;;;;;5041853;28;20222;-83
2022/07/10 03:45:23;;;;;;;6.07;1.60;;;15.50;99.90;;;;;;5042645;28;20279;-86
2022/07/10 03:47:50;;;;;;;5.93;1.93;;;15.50;99.90;;;;;;5044177;28;20239;-84
2022/07/10 03:50:17;;;;;;;6.87;1.90;;;15.50;99.90;;;;;;5040449;28;20288;-83
2022/07/10 03:52:46;;;;;;;7.30;1.90;;;15.40;99.90;;;;;;5036508;28;20205;-84
2022/07/10 03:55:13;;;;;;;6.63;1.77;;;15.40;99.90;;;;;;5040849;28;20213;-84
2022/07/10 03:58:02;;;;;;;3.30;1.43;;;15.40;99.90;;;;;;5046311;28;20209;-84
2022/07/10 04:00:34;;;;;;;6.77;1.70;;;15.40;99.90;;;;;;5037612;28;20544;-83
2022/07/10 04:03:03;;;;;;;5.83;1.90;;;15.30;99.90;;;;;;5037373;28;20233;-84
2022/07/10 04:05:31;;;;;;;5.60;1.73;;;15.40;99.90;;;;;;5045987;28;20228;-85
2022/07/10 04:07:59;;;;;;;4.97;1.70;;;15.40;99.90;;;;;;5039755;28;20213;-85
2022/07/10 04:10:29;;;;;;;7.17;1.80;;;15.30;99.90;;;;;;5042745;28;20209;-84
2022/07/10 04:12:56;;;;;;;6.47;1.67;;;15.50;99.90;;;;;;5039334;28;20216;-85
2022/07/10 04:15:23;;;;;;;5.10;1.97;;;15.60;99.90;;;;;;5045067;28;20258;-86
2022/07/10 04:17:53;;;;;;;5.47;2.13;;;15.60;99.90;;;;;;5046209;28;20217;-84
2022/07/10 04:20:21;;;;;;;4.43;1.80;;;15.60;99.90;;;;;;5040443;28;20208;-84
2022/07/10 04:22:49;;;;;;;5.13;1.83;;;15.70;99.90;;;;;;5041907;28;20254;-83
2022/07/10 04:25:16;;;;;;;7.10;1.80;;;15.70;99.90;;;;;;5042566;28;20235;-85
2022/07/10 04:27:46;;;;;;;4.43;1.77;;;15.80;99.90;;;;;;5036297;28;20205;-85
2022/07/10 04:30:17;;;;;;;5.50;1.67;;;15.90;99.90;;;;;;5041005;28;20304;-85
2022/07/10 04:32:44;;;;;;;5.80;2.00;;;16.00;99.90;;;;;;5043861;28;20295;-84
2022/07/10 04:35:13;;;;;;;4.33;1.80;;;16.10;99.90;;;;;;5040990;28;20217;-84
2022/07/10 04:37:46;;;;;;;7.70;1.90;;;16.00;99.90;;;;;;5039396;28;20223;-84
2022/07/10 04:40:13;;;;;;;8.77;2.10;;;16.10;99.90;;;;;;5039019;28;20205;-83
2022/07/10 04:42:40;;;;;;;6.83;1.90;;;16.10;99.90;;;;;;5045382;28;20227;-83
2022/07/10 04:45:07;;;;;;;6.17;2.33;;;16.20;99.90;;;;;;5041181;28;20213;-83
2022/07/10 04:47:34;;;;;;;4.17;1.43;;;16.30;99.90;;;;;;5041821;28;20601;-83
2022/07/10 04:50:01;;;;;;;5.80;1.87;;;16.30;99.90;;;;;;5041259;28;20217;-86
2022/07/10 04:52:28;;;;;;;6.10;2.20;;;16.40;99.90;;;;;;5046692;28;20921;-84
2022/07/10 04:54:55;;;;;;;7.63;2.90;;;16.40;99.90;;;;;;5035046;28;20222;-83
2022/07/10 04:57:22;;;;;;;6.57;2.00;;;16.40;99.90;;;;;;5041193;28;20198;-85
2022/07/10 04:59:49;;;;;;;6.00;2.20;;;16.50;99.90;;;;;;5042094;28;20288;-84
2022/07/10 05:02:16;;;;;;;6.40;1.87;;;16.60;99.90;;;;;;5043094;28;20232;-85
2022/07/10 05:04:44;;;;;;;7.03;2.27;;;16.70;99.90;;;;;;5041900;28;20233;-86
2022/07/10 05:07:11;;;;;;;5.13;1.60;;;16.90;99.90;;;;;;5042642;28;20231;-83
2022/07/10 05:09:38;;;;;;;4.90;1.85;;;17.00;99.90;;;;;;5043982;28;20276;-83
2022/07/10 05:12:06;;;;;;;6.13;2.23;;;17.10;99.90;;;;;;5049425;28;20209;-80
2022/07/10 05:14:34;;;;;;;4.43;1.97;;;17.20;99.90;;;;;;5053397;28;20193;-82
2022/07/10 05:17:02;;;;;;;4.30;1.90;;;17.20;99.90;;;;;;5062734;28;20205;-81
2022/07/10 05:19:45;;;;;;;4.70;1.60;;;17.20;99.90;;;;;;5061023;28;20205;-83
2022/07/10 05:22:14;;;;;;;8.20;1.93;;;17.20;99.90;;;;;;5048804;28;20201;-85
2022/07/10 05:24:42;;;;;;;6.50;2.78;;;17.20;99.90;;;;;;5047024;28;20202;-83
2022/07/10 05:27:47;;;;;;;4.97;1.77;;;17.20;99.90;;;;;;5046929;28;20299;-85
2022/07/10 05:30:14;;;;;;;6.78;2.00;;;17.30;99.90;;;;;;5045465;28;20219;-83
2022/07/10 05:32:45;;;;;;;7.60;2.47;;;17.30;99.90;;;;;;5041761;28;20202;-84
2022/07/10 05:35:14;;;;;;;7.57;2.08;;;17.50;99.90;;;;;;5039285;28;20213;-82
2022/07/10 05:37:42;;;;;;;7.60;1.83;;;17.40;99.90;;;;;;5044938;28;20254;-83
2022/07/10 05:40:09;;;;;;;7.65;2.13;;;17.40;99.90;;;;;;5037656;28;20740;-83
2022/07/10 05:42:37;;;;;;;5.00;1.35;;;17.50;99.90;;;;;;5040981;28;20302;-88
2022/07/10 05:45:09;;;;;;;5.50;2.13;;;17.60;99.90;;;;;;5042610;28;20201;-84
2022/07/10 05:47:36;;;;;;;4.75;1.85;;;17.90;99.90;;;;;;5034650;28;20226;-84
2022/07/10 05:50:04;;;;;;;5.35;1.85;;;18.30;99.90;;;;;;5043255;28;20823;-83
2022/07/10 05:52:31;;;;;;;9.07;2.30;;;18.50;99.90;;;;;;5038821;28;20272;-82
2022/07/10 05:54:59;;;;;;;7.53;1.85;;;18.40;99.90;;;;;;5041654;28;20201;-83
2022/07/10 05:57:26;;;;;;;5.88;1.88;;;18.30;99.90;;;;;;5045948;28;20208;-82
2022/07/10 05:59:53;;;;;;;5.05;1.83;;;18.10;99.90;;;;;;5038690;28;20723;-85
2022/07/10 06:02:20;;;;;;;9.18;2.67;;;18.00;99.90;;;;;;5042569;28;20606;-86
2022/07/10 06:04:51;;;;;;;5.80;1.80;;;17.90;99.90;;;;;;5044304;28;20233;-85
2022/07/10 06:07:18;;;;;;;8.82;2.00;;;17.90;99.90;;;;;;5044139;28;20225;-85
2022/07/10 06:09:45;;;;;;;8.20;1.92;;;18.00;99.90;;;;;;5062910;28;20213;-85
2022/07/10 06:12:12;;;;;;;6.22;2.15;;;17.90;99.90;;;;;;5060181;28;20261;-82
2022/07/10 06:14:40;;;;;;;6.68;1.85;;;18.00;99.90;;;;;;5052131;28;20589;-85
2022/07/10 06:17:07;;;;;;;4.05;1.90;;;18.00;99.90;;;;;;5040607;28;20209;-85
2022/07/10 06:19:35;;;;;;;6.38;1.90;;;18.00;99.90;;;;;;5044864;28;20697;-83
2022/07/10 06:24:47;;;;;;;7.30;1.90;;;18.00;99.90;;;;;;5037094;28;20216;-85
2022/07/10 06:27:14;;;;;;;10.52;2.20;;;17.90;99.90;;;;;;5036928;28;20287;-83
2022/07/10 06:29:41;;;;;;;7.72;2.15;;;17.90;99.90;;;;;;5039697;28;20201;-86
2022/07/10 06:32:08;;;;;;;5.32;1.80;;;17.80;99.90;;;;;;5037150;28;20694;-83
2022/07/10 06:34:35;;;;;;;7.60;2.17;;;17.80;99.90;;;;;;5040692;28;20232;-85
2022/07/10 06:37:04;;;;;;;6.13;1.92;;;17.70;99.90;;;;;;5036927;28;20680;-83
2022/07/10 06:39:37;;;;;;;5.88;1.80;;;17.70;99.90;;;;;;5036211;28;20202;-82
2022/07/10 06:42:06;;;;;;;6.68;2.33;;;17.70;99.90;;;;;;5037719;28;20320;-83
2022/07/10 06:44:33;;;;;;;7.60;2.45;;;17.70;99.90;;;;;;5040853;28;20232;-83
2022/07/10 06:49:49;;;;;;;9.95;2.70;;;17.60;99.90;;;;;;5044369;28;20223;-84
2022/07/10 06:52:18;;;;;;;8.95;2.75;;;17.40;99.90;;;;;;5044332;28;20933;-84
2022/07/10 06:54:45;;;;;;;7.77;2.47;;;17.40;99.90;;;;;;5040980;28;20205;-84
2022/07/10 06:57:13;;;;;;;8.87;2.33;;;17.30;99.90;;;;;;5055293;28;20198;-84
2022/07/10 06:59:40;;;;;;;6.77;2.40;;;17.10;99.90;;;;;;5037378;28;20696;-83
2022/07/10 07:02:07;;;;;;;6.07;2.08;;;17.00;99.90;;;;;;5037221;28;21085;-84
2022/07/10 07:04:34;;;;;;;5.65;2.30;;;17.00;99.90;;;;;;5037924;28;20786;-81
2022/07/10 07:07:03;;;;;;;5.50;2.67;;;17.00;99.90;;;;;;5040844;28;20264;-84
2022/07/10 07:09:30;;;;;;;6.40;2.38;;;17.00;99.90;;;;;;5041425;28;20988;-83
2022/07/10 07:12:00;;;;;;;8.17;2.40;;;17.00;99.90;;;;;;5043484;28;20709;-82
2022/07/10 07:14:27;;;;;;;6.30;2.13;;;17.00;99.90;;;;;;5037792;28;20201;-84
2022/07/10 07:17:05;;;;;;;3.23;2.20;;;17.00;99.90;;;;;;5043799;28;20223;-83
2022/07/10 07:25:10;;;;;;;3.30;1.93;;;17.00;99.90;;;;;;5039315;28;20197;-85
2022/07/10 07:27:39;;;;;;;5.33;2.07;;;17.00;99.90;;;;;;5041956;28;20221;-83
2022/07/10 07:30:11;;;;;;;9.37;2.27;;;17.00;99.90;;;;;;5036816;28;20210;-83
2022/07/10 07:32:39;;;;;;;2.13;1.80;;;17.00;99.90;;;;;;5038582;28;20201;-83
2022/07/10 07:35:08;;;;;;;7.20;2.17;;;17.00;99.90;;;;;;5041114;28;20220;-83
2022/07/10 07:37:43;;;;;;;3.40;2.10;;;17.00;99.90;;;;;;5039728;28;20198;-83
2022/07/10 07:40:19;;;;;;;4.97;2.60;;;17.00;99.90;;;;;;5039336;28;20685;-85
2022/07/10 07:42:46;;;;;;;3.70;2.17;;;16.90;99.90;;;;;;5043048;28;20975;-85
2022/07/10 07:45:15;;;;;;;4.57;2.30;;;16.90;99.90;;;;;;5046626;28;20681;-85
2022/07/10 07:47:55;;;;;;;3.50;2.40;;;17.00;99.90;;;;;;5041409;28;21023;-82
2022/07/10 07:50:26;;;;;;;2.87;1.77;;;16.90;99.90;;;;;;5046944;28;20201;-84
2022/07/10 07:52:54;;;;;;;5.73;2.50;;;17.00;99.90;;;;;;5040561;28;20193;-84
2022/07/10 07:55:22;;;;;;;7.10;2.23;;;17.00;99.90;;;;;;5040062;28;20316;-82
2022/07/10 07:57:55;;;;;;;3.23;1.77;;;17.00;99.90;;;;;;5041458;28;20213;-83
2022/07/10 08:00:24;;;;;;;2.83;2.00;;;17.00;99.90;;;;;;5042476;28;20205;-84
2022/07/10 08:02:53;;;;;;;4.93;2.03;;;16.90;99.90;;;;;;5040796;28;20821;-82
2022/07/10 08:05:24;;;;;;;4.23;2.23;;;16.80;99.90;;;;;;5040745;28;20241;-81
2022/07/10 08:08:01;;;;;;;5.20;2.60;;;16.90;99.90;;;;;;5038139;28;20933;-82
2022/07/10 08:10:30;;;;;;;6.33;2.13;;;16.90;99.90;;;;;;5041262;28;20209;-83
2022/07/10 08:12:57;;;;;;;5.60;2.63;;;16.90;99.90;;;;;;5042489;28;20209;-82
2022/07/10 08:15:25;;;;;;;6.57;2.83;;;16.90;99.90;;;;;;5036759;28;20665;-83
2022/07/10 08:17:53;;;;;;;5.37;2.63;;;17.00;99.90;;;;;;5040244;28;20221;-84
2022/07/10 08:20:26;;;;;;;4.60;2.70;;;17.00;99.90;;;;;;5043625;28;20209;-84
2022/07/10 08:22:53;;;;;;;3.72;2.40;;;17.10;99.90;;;;;;5045789;28;20208;-84
2022/07/10 08:25:29;;;;;;;6.35;3.28;;;17.20;99.90;;;;;;5041936;28;20640;-86
2022/07/10 08:28:03;;;;;;;7.82;2.35;;;17.20;99.90;;;;;;5037754;28;20229;-83
2022/07/10 08:30:31;;;;;;;3.95;2.47;;;17.20;99.90;;;;;;5038307;28;20946;-84
2022/07/10 08:33:01;;;;;;;8.02;2.65;;;17.30;99.90;;;;;;5038943;28;20304;-84
2022/07/10 08:35:28;;;;;;;9.40;2.83;;;17.30;99.90;;;;;;5039132;28;20209;-82
2022/07/10 08:37:57;;;;;;;8.95;3.60;;;17.40;99.90;;;;;;5042584;28;20231;-83
2022/07/10 08:40:24;;;;;;;6.30;2.73;;;17.40;99.90;;;;;;5041334;28;20201;-86
2022/07/10 08:42:57;;;;;;;6.97;2.45;;;17.50;99.90;;;;;;5038471;28;20335;-84
2022/07/10 08:45:30;;;;;;;7.20;3.10;;;17.80;99.90;;;;;;5034868;28;20205;-85
2022/07/10 08:48:05;;;;;;;8.23;2.65;;;17.90;99.90;;;;;;5037757;28;20233;-84
2022/07/10 08:50:37;;;;;;;8.35;2.55;;;18.10;99.90;;;;;;5038963;28;20835;-86
2022/07/10 08:53:09;;;;;;;6.32;1.90;;;18.30;99.90;;;;;;5039548;28;20205;-86
2022/07/10 08:55:36;;;;;;;5.43;2.25;;;18.30;99.90;;;;;;5045481;28;20224;-84
2022/07/10 08:58:08;;;;;;;6.97;2.88;;;18.30;99.90;;;;;;5041089;28;20213;-84
2022/07/10 09:00:36;;;;;;;4.63;1.95;;;18.40;99.90;;;;;;5041551;28;20204;-82
2022/07/10 09:03:03;;;;;;;5.35;2.03;;;18.30;99.90;;;;;;5042518;28;20316;-83
2022/07/10 09:05:41;;;;;;;5.47;2.00;;;18.20;99.90;;;;;;5041160;28;21200;-86
2022/07/10 09:08:27;;;;;;;5.93;2.20;;;18.20;99.90;;;;;;5039435;28;20701;-87
2022/07/10 09:11:18;;;;;;;7.18;2.40;;;18.20;99.90;;;;;;5041165;28;20202;-88
2022/07/10 09:13:56;;;;;;;5.75;2.13;;;18.10;99.90;;;;;;5037841;28;20224;-83
2022/07/10 09:16:51;;;;;;;2.75;2.10;;;18.00;99.90;;;;;;5035667;28;20219;-82
2022/07/10 09:19:27;;;;;;;7.55;2.38;;;18.00;99.90;;;;;;5034676;28;20218;-87
2022/07/10 09:22:09;;;;;;;4.82;2.10;;;18.10;99.90;;;;;;5042500;28;20209;-85
2022/07/10 09:24:44;;;;;;;5.05;2.10;;;18.00;99.90;;;;;;5037839;28;20208;-87
2022/07/10 09:30:42;;;;;;;5.93;2.50;;;18.00;99.90;;;;;;5003022;28;20221;-83
2022/07/10 09:33:25;;;;;;;7.65;3.05;;;18.10;99.90;;;;;;5033698;28;20733;-85
2022/07/10 09:36:05;;;;;;;4.47;2.10;;;18.10;99.90;;;;;;5044185;28;20252;-85
2022/07/10 09:38:44;;;;;;;4.68;2.40;;;18.20;99.90;;;;;;5041849;28;20209;-83
2022/07/10 09:41:25;;;;;;;8.20;2.53;;;18.30;99.90;;;;;;5040045;28;20247;-87
2022/07/10 09:43:56;;;;;;;4.57;2.08;;;18.30;99.90;;;;;;5040497;28;20233;-85
2022/07/10 09:46:28;;;;;;;4.13;2.10;;;18.40;99.90;;;;;;5030630;28;20209;-82
2022/07/10 09:49:12;;;;;;;5.00;2.60;;;18.50;99.90;;;;;;5042691;28;20686;-86
2022/07/10 09:51:41;;;;;;;5.68;2.38;;;18.50;99.90;;;;;;5042170;28;20327;-83
2022/07/10 09:54:15;;;;;;;6.45;2.03;;;18.60;99.90;;;;;;5036743;28;20716;-83
2022/07/10 09:56:47;;;;;;;3.50;2.10;;;18.60;99.90;;;;;;5039295;28;20217;-84
2022/07/10 09:59:18;;;;;;;4.75;2.05;;;18.70;99.90;;;;;;5046772;28;20287;-83
2022/07/10 10:01:52;;;;;;;6.35;2.45;;;18.70;99.90;;;;;;5045543;28;20205;-84
2022/07/10 10:04:23;;;;;;;4.93;2.67;;;18.80;99.90;;;;;;5042731;28;20229;-84
2022/07/10 10:06:53;;;;;;;3.88;1.90;;;18.80;99.90;;;;;;5047799;28;20197;-84
2022/07/10 10:09:38;;;;;;;5.53;2.22;;;18.80;99.90;;;;;;5056233;28;20202;-85
2022/07/10 10:12:51;;;;;;;3.83;1.98;;;18.80;99.90;;;;;;5056133;28;20202;-85
2022/07/10 10:15:18;;;;;;;4.50;2.10;;;18.80;99.90;;;;;;5029190;28;20214;-85
2022/07/10 10:17:50;;;;;;;4.03;2.05;;;18.80;99.90;;;;;;5043784;28;20644;-83
2022/07/10 10:23:22;;;;;;;6.28;2.10;;;18.80;99.90;;;;;;5042862;28;20212;-84
2022/07/10 10:25:54;;;;;;;4.32;2.05;;;18.90;99.90;;;;;;5045305;28;20212;-84
2022/07/10 10:28:24;;;;;;;4.95;2.08;;;18.80;99.90;;;;;;5044033;28;20225;-84
2022/07/10 10:30:59;;;;;;;3.70;2.00;;;18.90;99.90;;;;;;5047940;28;20303;-86
2022/07/10 10:33:32;;;;;;;3.15;1.85;;;18.90;99.90;;;;;;5045620;28;20220;-86
2022/07/10 10:36:08;;;;;;;6.50;2.20;;;19.10;99.90;;;;;;5053793;28;20205;-87
2022/07/10 10:38:55;;;;;;;3.25;2.17;;;19.20;99.90;;;;;;5044528;28;20201;-87
2022/07/10 10:41:30;;;;;;;2.67;1.58;;;19.50;99.90;;;;;;5061573;28;20209;-87
2022/07/10 10:44:07;;;;;;;4.72;1.90;;;19.60;99.90;;;;;;5045845;28;20228;-86
2022/07/10 10:46:35;;;;;;;4.60;1.75;;;19.90;99.90;;;;;;5040273;28;20201;-85
2022/07/10 10:49:07;;;;;;;3.65;2.00;;;20.20;99.90;;;;;;5036722;28;20709;-87
2022/07/10 10:51:59;;;;;;;3.25;1.80;;;20.40;99.90;;;;;;5043799;28;20201;-88
2022/07/10 10:54:28;;;;;;;4.20;2.83;;;20.60;99.90;;;;;;5044127;28;20782;-85
2022/07/10 10:57:15;;;;;;;4.47;1.77;;;20.70;99.90;;;;;;5044685;28;20281;-86
2022/07/10 11:00:06;;;;;;;6.30;1.85;;;20.90;99.90;;;;;;5042613;28;20201;-86
2022/07/10 11:02:37;;;;;;;4.82;1.77;;;21.10;99.90;;;;;;5042954;28;20260;-86
2022/07/10 11:05:11;;;;;;;3.33;1.50;;;21.30;99.90;;;;;;5049040;28;20247;-86
2022/07/10 11:08:02;;;;;;;3.63;1.90;;;21.40;99.90;;;;;;5050892;28;20703;-86
2022/07/10 11:10:35;;;;;;;4.38;1.63;;;21.30;99.90;;;;;;5050032;28;20193;-86
2022/07/10 11:13:10;;;;;;;2.92;1.70;;;21.10;99.90;;;;;;5054753;28;20197;-87
2022/07/10 11:15:52;;;;;;;4.47;1.88;;;21.10;99.90;;;;;;5051625;28;20231;-86
2022/07/10 11:18:28;;;;;;;3.97;1.77;;;21.00;99.90;;;;;;5050537;28;20271;-85
2022/07/10 11:20:56;;;;;;;5.95;1.65;;;20.90;99.90;;;;;;5049279;28;20748;-89
2022/07/10 11:23:48;;;;;;;3.47;1.50;;;21.00;99.90;;;;;;5046681;28;20198;-84
2022/07/10 11:27:02;;;;;;;5.53;1.70;;;21.00;99.90;;;;;;5050778;28;20279;-86
2022/07/10 11:29:37;;;;;;;7.25;2.22;;;21.00;99.90;;;;;;5040012;28;20295;-86
2022/07/10 11:32:50;;;;;;;3.03;1.55;;;20.80;99.90;;;;;;5048412;28;20197;-92
2022/07/10 11:35:21;;;;;;;2.80;1.50;;;20.50;99.90;;;;;;5066576;28;20232;-88
2022/07/10 11:38:00;;;;;;;5.28;1.90;;;20.30;99.90;;;;;;5042989;28;20204;-87
2022/07/10 11:40:35;;;;;;;4.40;1.70;;;20.20;99.90;;;;;;5045245;28;20207;-87
2022/07/10 11:43:17;;;;;;;2.97;1.83;;;20.20;99.90;;;;;;5043645;28;20272;-88
2022/07/10 11:45:59;;;;;;;4.40;1.92;;;20.40;99.90;;;;;;5046557;28;20248;-89
2022/07/10 11:48:28;;;;;;;4.32;1.95;;;20.60;99.90;;;;;;5048505;28;20248;-89
2022/07/10 11:50:57;;;;;;;3.92;1.50;;;20.90;99.90;;;;;;5048575;28;20205;-86
2022/07/10 11:53:28;;;;;;;2.92;1.50;;;21.20;99.90;;;;;;5048244;28;20243;-88
2022/07/10 11:55:55;;;;;;;2.80;1.63;;;21.30;99.90;;;;;;5044339;28;20236;-88
2022/07/10 11:58:25;;;;;;;3.95;2.00;;;21.50;99.90;;;;;;5042714;28;20205;-87
2022/07/10 12:01:01;;;;;;;3.95;1.60;;;21.70;99.90;;;;;;5046851;28;20213;-88
2022/07/10 12:03:29;;;;;;;4.90;2.15;;;21.80;99.90;;;;;;5040401;28;20233;-89
2022/07/10 12:06:05;;;;;;;3.92;1.55;;;21.90;99.90;;;;;;5055467;28;20237;-87
2022/07/10 12:08:47;;;;;;;3.55;1.70;;;22.00;99.90;;;;;;5047555;28;20225;-89
2022/07/10 12:11:20;;;;;;;2.55;1.58;;;22.00;99.90;;;;;;5041575;28;20198;-87
2022/07/10 12:13:52;;;;;;;3.38;1.52;;;22.10;99.90;;;;;;5045094;28;20210;-88
2022/07/10 12:16:28;;;;;;;5.63;1.80;;;22.00;99.90;;;;;;5050779;28;20666;-88
2022/07/10 12:19:06;;;;;;;5.05;1.45;;;22.00;99.90;;;;;;5050508;28;20248;-87
2022/07/10 12:21:35;;;;;;;3.60;1.55;;;21.90;99.90;;;;;;5045696;28;20264;-92
2022/07/10 12:24:04;;;;;;;5.45;1.33;;;21.70;99.90;;;;;;5044582;28;20217;-89
2022/07/10 12:26:44;;;;;;;6.30;1.50;;;21.70;99.90;;;;;;5045430;28;20198;-91
2022/07/10 12:29:25;;;;;;;3.55;1.20;;;21.70;99.90;;;;;;5040252;28;20236;-82
2022/07/10 12:32:02;;;;;;;4.25;1.60;;;21.90;99.90;;;;;;5045142;28;20209;-83
2022/07/10 12:34:34;;;;;;;4.68;1.52;;;22.10;99.90;;;;;;5047173;28;20220;-84
2022/07/10 12:37:32;;;;;;;5.20;1.42;;;22.30;99.90;;;;;;5055067;28;20201;-90
2022/07/10 12:40:02;;;;;;;3.95;1.48;;;22.50;99.90;;;;;;5051982;28;20212;-91
2022/07/10 12:42:35;;;;;;;3.80;1.95;;;22.60;99.90;;;;;;5053442;28;20223;-89
2022/07/10 12:45:13;;;;;;;4.85;1.40;;;22.60;99.90;;;;;;5048659;28;20202;-91
2022/07/10 12:47:52;;;;;;;4.20;1.83;;;22.70;99.90;;;;;;5054982;28;20217;-92
2022/07/10 12:50:26;;;;;;;4.25;1.50;;;22.60;99.90;;;;;;5048546;28;20263;-92
2022/07/10 12:53:14;;;;;;;2.75;1.30;;;22.60;99.90;;;;;;5055272;28;20197;-90
2022/07/10 12:55:42;;;;;;;4.28;1.42;;;22.60;99.90;;;;;;5052528;28;20255;-90
2022/07/10 12:58:12;;;;;;;2.38;1.33;;;22.50;99.90;;;;;;5058977;28;21450;-92
2022/07/10 13:00:54;;;;;;;2.30;1.30;;;22.40;99.90;;;;;;5046418;28;20299;-92
2022/07/10 13:03:34;;;;;;;4.30;1.70;;;22.40;99.90;;;;;;5051034;28;20241;-91
2022/07/10 13:06:05;;;;;;;2.85;1.10;;;22.40;99.90;;;;;;5047891;28;20219;-93
2022/07/10 13:08:50;;;;;;;2.70;1.27;;;22.40;99.90;;;;;;5054001;28;20217;-91
2022/07/10 13:11:19;;;;;;;2.47;1.20;;;22.40;99.90;;;;;;5051747;28;20225;-92
2022/07/10 13:14:05;;;;;;;2.08;1.10;;;22.40;99.90;;;;;;5054569;28;20229;-89
2022/07/10 13:16:35;;;;;;;4.95;1.23;;;22.40;99.90;;;;;;5039662;28;20492;-91
2022/07/10 13:19:10;;;;;;;3.78;1.40;;;22.40;99.90;;;;;;5050077;28;20217;-92
2022/07/10 13:21:48;;;;;;;;;;;;;;;;;;;;;
2022/07/10 13:24:19;;;;;;;4.00;1.27;;;22.50;99.90;;;;;;5053998;28;20213;-91
2022/07/10 13:26:57;;;;;;;3.25;1.30;;;22.50;99.90;;;;;;5041188;28;20264;-90
2022/07/10 13:29:40;;;;;;;3.45;1.27;;;22.50;99.90;;;;;;5045336;28;20224;-92